Time;durP1;ratioP1;P1;durP2;ratioP2;P2;SDS_P1;SDS_P2;PMS_P1;PMS_P2;Temp;Humidity;BMP_temperature;BMP_pressure;BME280_temperature;BME280_humidity;BME280_pressure;Samples;Min_cycle;Max_cycle;Signal;HPM_P1;HPM_P2
2022/01/10 00:00:31;;;;;;;30.50;23.02;;;;;;;;;;5019226;28;20033;-79
2022/01/10 00:02:59;;;;;;;27.20;20.95;;;;;;;;;;4997903;28;20057;-79
2022/01/10 00:05:25;;;;;;;31.25;21.80;;;;;;;;;;5019229;28;20064;-80
2022/01/10 00:07:51;;;;;;;25.85;22.08;;;;;;;;;;5002099;28;20030;-80
2022/01/10 00:10:17;;;;;;;24.35;21.20;;;;;;;;;;5020663;28;20040;-79
2022/01/10 00:12:43;;;;;;;26.63;21.42;;;;;;;;;;5029586;28;20034;-79
2022/01/10 00:15:10;;;;;;;29.20;21.60;;;;;;;;;;5020673;28;20056;-78
2022/01/10 00:17:39;;;;;;;32.53;24.13;;;;;;;;;;5024213;28;20100;-76
2022/01/10 00:20:07;;;;;;;31.52;21.17;;;;;;;;;;5014861;28;20308;-77
2022/01/10 00:22:33;;;;;;;29.27;22.13;;;;;;;;;;5043321;28;20038;-76
2022/01/10 00:24:58;;;;;;;29.70;21.02;;;;;;;;;;5008359;28;20084;-76
2022/01/10 00:27:24;;;;;;;28.13;22.17;;;;;;;;;;5009167;28;20112;-77
2022/01/10 00:29:50;;;;;;;29.90;22.77;;;;;;;;;;5008310;28;20053;-77
2022/01/10 00:32:16;;;;;;;23.45;21.00;;;;;;;;;;5013643;28;20032;-76
2022/01/10 00:34:41;;;;;;;33.28;22.48;;;;;;;;;;4971783;28;20132;-76
2022/01/10 00:37:07;;;;;;;30.45;21.88;;;;;;;;;;5004852;28;20037;-76
2022/01/10 00:39:32;;;;;;;29.83;22.95;;;;;;;;;;4992988;28;20043;-77
2022/01/10 00:41:58;;;;;;;32.25;23.58;;;;;;;;;;5015905;28;20478;-76
2022/01/10 00:44:26;;;;;;;30.23;22.38;;;;;;;;;;4988801;28;20163;-76
2022/01/10 00:46:53;;;;;;;25.30;22.55;;;;;;;;;;4991023;28;20038;-77
2022/01/10 00:49:19;;;;;;;29.63;22.98;;;;;;;;;;4997367;28;20119;-77
2022/01/10 00:51:44;;;;;;;26.58;22.63;;;;;;;;;;5011853;28;20049;-76
2022/01/10 00:54:10;;;;;;;22.50;20.20;;;;;;;;;;5005695;28;20117;-77
2022/01/10 00:56:36;;;;;;;27.15;21.25;;;;;;;;;;4978587;28;20493;-76
2022/01/10 00:59:02;;;;;;;23.63;20.27;;;;;;;;;;5007224;28;20344;-76
2022/01/10 01:01:29;;;;;;;28.38;21.10;;;;;;;;;;4989347;28;20113;-76
2022/01/10 01:03:54;;;;;;;28.48;21.35;;;;;;;;;;4986841;28;20109;-76
2022/01/10 01:06:20;;;;;;;24.75;21.45;;;;;;;;;;4993353;28;20100;-76
2022/01/10 01:08:46;;;;;;;28.63;22.23;;;;;;;;;;4996289;28;20076;-76
2022/01/10 01:13:53;;;;;;;29.85;21.45;;;;;;;;;;4995186;28;20041;-76
2022/01/10 01:16:31;;;;;;;25.42;20.77;;;;;;;;;;5013396;28;20703;-77
2022/01/10 01:19:15;;;;;;;27.48;20.45;;;;;;;;;;5008819;28;20430;-77
2022/01/10 01:24:25;;;;;;;30.17;21.20;;;;;;;;;;4989856;28;20113;-77
2022/01/10 01:26:52;;;;;;;28.60;20.92;;;;;;;;;;4995115;28;20117;-77
2022/01/10 01:29:20;;;;;;;32.72;23.02;;;;;;;;;;5007092;28;20042;-76
2022/01/10 01:31:46;;;;;;;35.40;23.27;;;;;;;;;;4986934;28;20030;-76
2022/01/10 01:34:14;;;;;;;33.72;23.35;;;;;;;;;;4989830;28;20034;-76
2022/01/10 01:36:41;;;;;;;27.98;21.58;;;;;;;;;;4987934;28;20121;-76
2022/01/10 01:39:18;;;;;;;31.42;22.45;;;;;;;;;;5008331;28;20042;-76
2022/01/10 01:41:44;;;;;;;26.75;23.17;;;;;;;;;;4995549;28;20044;-76
2022/01/10 01:44:10;;;;;;;31.55;22.90;;;;;;;;;;5009777;28;20048;-76
2022/01/10 01:46:38;;;;;;;29.33;23.63;;;;;;;;;;4990210;28;20048;-76
2022/01/10 01:49:06;;;;;;;26.70;22.80;;;;;;;;;;4990125;28;20138;-76
2022/01/10 01:51:32;;;;;;;32.30;23.75;;;;;;;;;;4997558;28;20113;-76
2022/01/10 01:53:58;;;;;;;31.20;25.08;;;;;;;;;;5007887;28;20057;-76
2022/01/10 01:56:24;;;;;;;33.45;24.27;;;;;;;;;;5008114;28;20490;-77
2022/01/10 01:58:54;;;;;;;31.38;24.65;;;;;;;;;;4990741;28;20073;-76
2022/01/10 02:01:23;;;;;;;30.88;24.58;;;;;;;;;;4991972;28;20034;-77
2022/01/10 02:03:49;;;;;;;41.20;26.27;;;;;;;;;;4990914;28;20444;-76
2022/01/10 02:06:21;;;;;;;33.55;24.13;;;;;;;;;;4982102;28;20450;-76
2022/01/10 02:08:47;;;;;;;41.80;25.35;;;;;;;;;;4988035;28;20038;-76
2022/01/10 02:11:14;;;;;;;31.92;23.85;;;;;;;;;;4989867;28;20060;-75
2022/01/10 02:13:41;;;;;;;33.45;24.08;;;;;;;;;;4989440;28;20049;-76
2022/01/10 02:16:32;;;;;;;33.53;24.70;;;;;;;;;;4991609;28;20045;-76
2022/01/10 02:18:59;;;;;;;36.72;24.70;;;;;;;;;;4998048;28;20117;-76
2022/01/10 02:21:24;;;;;;;35.50;24.17;;;;;;;;;;4992024;28;20108;-75
2022/01/10 02:23:51;;;;;;;33.65;24.23;;;;;;;;;;4989922;28;20050;-76
2022/01/10 02:26:22;;;;;;;36.22;25.45;;;;;;;;;;4992249;28;20041;-76
2022/01/10 02:28:48;;;;;;;38.13;24.60;;;;;;;;;;4988921;28;20104;-76
2022/01/10 02:31:14;;;;;;;36.60;25.67;;;;;;;;;;5007307;28;20105;-76
2022/01/10 02:33:40;;;;;;;37.30;25.00;;;;;;;;;;4989371;28;20615;-76
2022/01/10 02:36:24;;;;;;;34.42;23.52;;;;;;;;;;4983732;28;20058;-76
2022/01/10 02:38:56;;;;;;;38.50;24.83;;;;;;;;;;4987361;28;20787;-76
2022/01/10 02:41:25;;;;;;;29.85;23.65;;;;;;;;;;5005728;28;20393;-77
2022/01/10 02:43:53;;;;;;;41.42;26.80;;;;;;;;;;4971410;28;20133;-76
2022/01/10 02:46:21;;;;;;;41.33;27.67;;;;;;;;;;4991805;28;20175;-76
2022/01/10 02:48:47;;;;;;;52.80;29.95;;;;;;;;;;4987548;28;20048;-76
2022/01/10 02:51:14;;;;;;;44.70;30.42;;;;;;;;;;5004698;28;20493;-76
2022/01/10 02:53:40;;;;;;;60.53;34.55;;;;;;;;;;5006854;28;20206;-76
2022/01/10 02:56:06;;;;;;;53.28;33.50;;;;;;;;;;4986810;28;20042;-76
2022/01/10 02:58:32;;;;;;;59.50;36.65;;;;;;;;;;5009018;28;20068;-76
2022/01/10 03:00:58;;;;;;;60.42;35.05;;;;;;;;;;4990404;28;20117;-76
2022/01/10 03:03:30;;;;;;;57.08;34.03;;;;;;;;;;4990694;28;20046;-76
2022/01/10 03:05:57;;;;;;;51.22;30.83;;;;;;;;;;5012990;28;20038;-76
2022/01/10 03:08:25;;;;;;;47.40;29.02;;;;;;;;;;4992966;28;20037;-76
2022/01/10 03:10:50;;;;;;;47.03;29.25;;;;;;;;;;4993870;28;20072;-76
2022/01/10 03:13:17;;;;;;;46.35;30.63;;;;;;;;;;4969085;28;20110;-76
2022/01/10 03:15:42;;;;;;;50.08;31.90;;;;;;;;;;4988834;28;20442;-77
2022/01/10 03:18:08;;;;;;;59.03;33.15;;;;;;;;;;5000041;28;20134;-76
2022/01/10 03:20:34;;;;;;;70.15;40.53;;;;;;;;;;4992598;28;20042;-76
2022/01/10 03:23:00;;;;;;;60.67;38.45;;;;;;;;;;4991879;28;20046;-76
2022/01/10 03:25:25;;;;;;;68.20;38.80;;;;;;;;;;5009414;28;20037;-76
2022/01/10 03:27:56;;;;;;;46.20;31.10;;;;;;;;;;4990528;28;20452;-76
2022/01/10 03:30:21;;;;;;;45.72;31.50;;;;;;;;;;4988306;28;20490;-76
2022/01/10 03:32:50;;;;;;;53.55;30.77;;;;;;;;;;4958084;28;20076;-76
2022/01/10 03:35:24;;;;;;;44.28;29.90;;;;;;;;;;4991523;28;20030;-76
2022/01/10 03:37:50;;;;;;;43.88;29.85;;;;;;;;;;4992290;28;20052;-76
2022/01/10 03:40:16;;;;;;;36.47;28.02;;;;;;;;;;4991370;28;20064;-76
2022/01/10 03:42:41;;;;;;;41.15;29.17;;;;;;;;;;4991450;28;20049;-76
2022/01/10 03:45:07;;;;;;;38.88;27.23;;;;;;;;;;4992352;28;20699;-76
2022/01/10 03:47:34;;;;;;;45.50;30.02;;;;;;;;;;4992606;28;20033;-76
2022/01/10 03:50:00;;;;;;;41.53;28.60;;;;;;;;;;4989346;28;20760;-77
2022/01/10 03:52:27;;;;;;;46.30;28.88;;;;;;;;;;4991488;28;20065;-77
2022/01/10 03:54:54;;;;;;;43.38;28.17;;;;;;;;;;4996218;28;20133;-76
2022/01/10 03:57:19;;;;;;;45.42;31.30;;;;;;;;;;4988957;28;20120;-76
2022/01/10 03:59:46;;;;;;;45.60;30.23;;;;;;;;;;5001708;28;20461;-77
2022/01/10 04:02:12;;;;;;;48.97;31.88;;;;;;;;;;4984234;28;20049;-77
2022/01/10 04:04:39;;;;;;;56.38;36.30;;;;;;;;;;5005805;28;20483;-76
2022/01/10 04:07:05;;;;;;;53.88;36.13;;;;;;;;;;4985710;28;20516;-76
2022/01/10 04:09:32;;;;;;;56.67;33.85;;;;;;;;;;4999761;28;20465;-77
2022/01/10 04:11:57;;;;;;;56.67;32.40;;;;;;;;;;5005898;28;20030;-77
2022/01/10 04:14:23;;;;;;;44.60;30.67;;;;;;;;;;4994624;28;20041;-76
2022/01/10 04:16:50;;;;;;;43.25;28.83;;;;;;;;;;4976176;28;20113;-76
2022/01/10 04:19:15;;;;;;;43.63;29.40;;;;;;;;;;4986463;28;20616;-76
2022/01/10 04:21:41;;;;;;;41.53;27.92;;;;;;;;;;4989076;28;20034;-76
2022/01/10 04:24:07;;;;;;;40.33;28.45;;;;;;;;;;4990802;28;20037;-76
2022/01/10 04:26:34;;;;;;;41.85;28.13;;;;;;;;;;4992497;28;20037;-76
2022/01/10 04:29:00;;;;;;;37.47;26.85;;;;;;;;;;4973579;28;20115;-77
2022/01/10 04:31:26;;;;;;;32.55;24.95;;;;;;;;;;4982513;28;20183;-77
2022/01/10 04:33:51;;;;;;;35.00;25.27;;;;;;;;;;4990180;28;20555;-76
2022/01/10 04:36:17;;;;;;;34.08;25.63;;;;;;;;;;5004840;28;20561;-76
2022/01/10 04:38:43;;;;;;;36.35;27.33;;;;;;;;;;4988951;28;20504;-76
2022/01/10 04:41:10;;;;;;;34.08;26.40;;;;;;;;;;4996831;28;20121;-76
2022/01/10 04:43:37;;;;;;;38.15;27.00;;;;;;;;;;4988476;28;20503;-76
2022/01/10 04:46:04;;;;;;;38.85;27.83;;;;;;;;;;5009313;28;20088;-77
2022/01/10 04:48:30;;;;;;;39.10;26.15;;;;;;;;;;4974965;28;20690;-77
2022/01/10 04:53:34;;;;;;;41.03;28.00;;;;;;;;;;5006973;28;20040;-77
2022/01/10 04:56:00;;;;;;;38.10;25.17;;;;;;;;;;5008004;28;20081;-76
2022/01/10 04:58:26;;;;;;;41.05;27.02;;;;;;;;;;4971123;28;20108;-76
2022/01/10 05:00:54;;;;;;;44.90;25.73;;;;;;;;;;4987578;28;20545;-77
2022/01/10 05:03:21;;;;;;;51.03;28.25;;;;;;;;;;5005856;28;20052;-76
2022/01/10 05:05:54;;;;;;;46.55;25.40;;;;;;;;;;4958744;28;20179;-76
2022/01/10 05:08:21;;;;;;;43.88;27.17;;;;;;;;;;4987513;28;20049;-76
2022/01/10 05:10:49;;;;;;;42.63;24.95;;;;;;;;;;5005236;28;20070;-76
2022/01/10 05:13:15;;;;;;;37.20;25.95;;;;;;;;;;4986369;28;20034;-76
2022/01/10 05:15:46;;;;;;;38.78;24.63;;;;;;;;;;4991313;28;20057;-76
2022/01/10 05:18:18;;;;;;;36.90;24.33;;;;;;;;;;5005423;28;20091;-76
2022/01/10 05:20:44;;;;;;;50.42;28.67;;;;;;;;;;4980005;28;20037;-76
2022/01/10 05:23:10;;;;;;;36.67;23.25;;;;;;;;;;4972531;28;20120;-76
2022/01/10 05:25:39;;;;;;;39.38;25.05;;;;;;;;;;4972405;28;20037;-76
2022/01/10 05:28:09;;;;;;;40.88;23.52;;;;;;;;;;4989128;28;20118;-76
2022/01/10 05:30:36;;;;;;;39.88;23.73;;;;;;;;;;4972527;28;20056;-77
2022/01/10 05:33:03;;;;;;;37.78;23.83;;;;;;;;;;4991369;28;20033;-76
2022/01/10 05:35:35;;;;;;;37.22;23.70;;;;;;;;;;4988984;28;20108;-76
2022/01/10 05:38:01;;;;;;;41.40;23.83;;;;;;;;;;5005390;28;20210;-76
2022/01/10 05:40:26;;;;;;;36.60;23.50;;;;;;;;;;4990290;28;20151;-77
2022/01/10 05:42:52;;;;;;;36.60;22.27;;;;;;;;;;4987057;28;20030;-75
2022/01/10 05:45:21;;;;;;;35.78;23.17;;;;;;;;;;4988112;28;20034;-76
2022/01/10 05:47:47;;;;;;;39.92;24.25;;;;;;;;;;5006743;28;20519;-76
2022/01/10 05:50:18;;;;;;;42.22;22.92;;;;;;;;;;4989636;28;20037;-77
2022/01/10 05:52:46;;;;;;;40.88;23.17;;;;;;;;;;4988214;28;20112;-77
2022/01/10 05:55:12;;;;;;;43.80;24.30;;;;;;;;;;4991091;28;20046;-76
2022/01/10 05:57:42;;;;;;;37.05;23.77;;;;;;;;;;5006387;28;20041;-76
2022/01/10 06:00:08;;;;;;;37.63;24.40;;;;;;;;;;4985991;28;20121;-76
2022/01/10 06:02:40;;;;;;;73.82;28.25;;;;;;;;;;5005165;28;20096;-76
2022/01/10 06:05:09;;;;;;;115.30;29.15;;;;;;;;;;4990472;28;20630;-76
2022/01/10 06:07:42;;;;;;;37.22;27.60;;;;;;;;;;4969080;28;20500;-76
2022/01/10 06:10:09;;;;;;;36.95;25.40;;;;;;;;;;4972472;28;20041;-76
2022/01/10 06:12:37;;;;;;;37.60;27.33;;;;;;;;;;4987636;28;20878;-76
2022/01/10 06:15:03;;;;;;;40.63;27.70;;;;;;;;;;5001584;28;20030;-76
2022/01/10 06:17:30;;;;;;;37.40;25.52;;;;;;;;;;4993145;28;20040;-73
2022/01/10 06:19:56;;;;;;;36.95;25.20;;;;;;;;;;4994514;28;20026;-76
2022/01/10 06:22:22;;;;;;;37.45;25.00;;;;;;;;;;4990747;28;20401;-76
2022/01/10 06:24:48;;;;;;;31.52;24.08;;;;;;;;;;4992505;28;20041;-76
2022/01/10 06:27:14;;;;;;;38.13;24.85;;;;;;;;;;4990201;28;20052;-75
2022/01/10 06:29:40;;;;;;;44.58;30.13;;;;;;;;;;4990305;28;20053;-76
2022/01/10 06:32:06;;;;;;;55.60;33.00;;;;;;;;;;5010909;28;20042;-76
2022/01/10 06:34:32;;;;;;;42.95;28.27;;;;;;;;;;5011064;28;20049;-76
2022/01/10 06:37:01;;;;;;;54.22;31.30;;;;;;;;;;4980021;28;20050;-76
2022/01/10 06:39:27;;;;;;;43.95;28.00;;;;;;;;;;5011318;28;20101;-75
2022/01/10 06:41:53;;;;;;;43.28;27.35;;;;;;;;;;4992148;28;20044;-76
2022/01/10 06:44:20;;;;;;;39.28;26.80;;;;;;;;;;4994467;28;20084;-75
2022/01/10 06:46:46;;;;;;;37.10;25.95;;;;;;;;;;5010625;28;20475;-74
2022/01/10 06:49:13;;;;;;;39.05;26.17;;;;;;;;;;4994641;28;20041;-76
2022/01/10 06:51:39;;;;;;;40.67;26.73;;;;;;;;;;4995722;28;20107;-76
2022/01/10 06:54:04;;;;;;;41.15;25.48;;;;;;;;;;5031259;28;20045;-76
2022/01/10 06:56:31;;;;;;;36.70;25.92;;;;;;;;;;5010992;28;20030;-76
2022/01/10 06:58:58;;;;;;;38.97;25.02;;;;;;;;;;5000864;28;20072;-76
2022/01/10 07:01:35;;;;;;;36.10;26.73;;;;;;;;;;5023596;28;20279;-76
2022/01/10 07:04:01;;;;;;;44.05;26.65;;;;;;;;;;5008626;28;20163;-75
2022/01/10 07:06:27;;;;;;;43.25;25.30;;;;;;;;;;5017239;28;20041;-76
2022/01/10 07:08:54;;;;;;;44.78;25.90;;;;;;;;;;4979298;28;20034;-76
2022/01/10 07:11:31;;;;;;;48.40;28.63;;;;;;;;;;4995204;28;20082;-75
2022/01/10 07:13:56;;;;;;;45.75;29.15;;;;;;;;;;4996616;28;20567;-75
2022/01/10 07:16:22;;;;;;;46.50;28.50;;;;;;;;;;4988319;28;20030;-75
2022/01/10 07:18:53;;;;;;;52.65;28.42;;;;;;;;;;4976700;28;20100;-77
2022/01/10 07:21:29;;;;;;;50.25;29.00;;;;;;;;;;5005142;28;20029;-77
2022/01/10 07:23:54;;;;;;;48.80;26.77;;;;;;;;;;4965737;28;20046;-78
2022/01/10 07:26:20;;;;;;;46.53;27.25;;;;;;;;;;4995636;28;20144;-77
2022/01/10 07:28:46;;;;;;;51.95;29.65;;;;;;;;;;5019472;28;20480;-80
2022/01/10 07:31:11;;;;;;;61.45;31.60;;;;;;;;;;5022170;28;20100;-77
2022/01/10 07:33:37;;;;;;;55.95;27.15;;;;;;;;;;5007435;28;20073;-77
2022/01/10 07:36:04;;;;;;;56.55;29.55;;;;;;;;;;5016663;28;20057;-77
2022/01/10 07:38:35;;;;;;;61.25;27.20;;;;;;;;;;4984888;28;20037;-77
2022/01/10 07:41:06;;;;;;;61.83;28.77;;;;;;;;;;4985108;28;20120;-82
2022/01/10 07:43:33;;;;;;;57.40;28.63;;;;;;;;;;5015453;28;20061;-79
2022/01/10 07:46:03;;;;;;;64.15;28.98;;;;;;;;;;5002906;28;20443;-79
2022/01/10 07:48:31;;;;;;;49.60;26.27;;;;;;;;;;4981171;28;20049;-80
2022/01/10 07:50:56;;;;;;;59.85;27.02;;;;;;;;;;4993397;28;20041;-79
2022/01/10 07:53:22;;;;;;;57.40;26.40;;;;;;;;;;5013506;28;20029;-78
2022/01/10 07:55:48;;;;;;;50.47;24.48;;;;;;;;;;5013836;28;20116;-80
2022/01/10 07:58:14;;;;;;;55.58;28.00;;;;;;;;;;4997965;28;20505;-79
2022/01/10 08:00:40;;;;;;;61.22;28.08;;;;;;;;;;5006727;28;20052;-78
2022/01/10 08:03:05;;;;;;;52.40;26.42;;;;;;;;;;5012074;28;20073;-78
2022/01/10 08:05:31;;;;;;;60.30;26.60;;;;;;;;;;4993654;28;20050;-75
2022/01/10 08:07:57;;;;;;;45.33;24.70;;;;;;;;;;4985089;28;20026;-78
2022/01/10 08:10:22;;;;;;;50.00;26.35;;;;;;;;;;5011396;28;20049;-78
2022/01/10 08:12:48;;;;;;;44.63;22.95;;;;;;;;;;5012215;28;20034;-78
2022/01/10 08:15:14;;;;;;;44.67;25.70;;;;;;;;;;5012959;28;20034;-79
2022/01/10 08:17:40;;;;;;;47.75;26.33;;;;;;;;;;5014378;28;20124;-78
2022/01/10 08:20:06;;;;;;;42.38;24.20;;;;;;;;;;5010315;28;20035;-78
2022/01/10 08:22:31;;;;;;;39.97;23.83;;;;;;;;;;5013430;28;20731;-78
2022/01/10 08:24:57;;;;;;;36.30;23.10;;;;;;;;;;5007900;28;20076;-77
2022/01/10 08:27:23;;;;;;;34.13;23.33;;;;;;;;;;4977245;28;20049;-76
2022/01/10 08:29:49;;;;;;;43.03;24.88;;;;;;;;;;5016814;28;20452;-77
2022/01/10 08:32:16;;;;;;;38.17;23.77;;;;;;;;;;5014559;28;20045;-77
2022/01/10 08:34:42;;;;;;;37.65;24.23;;;;;;;;;;4976082;28;20359;-77
2022/01/10 08:37:07;;;;;;;38.33;24.25;;;;;;;;;;5001433;28;20033;-82
2022/01/10 08:39:33;;;;;;;41.72;27.15;;;;;;;;;;5009699;28;20511;-80
2022/01/10 08:41:59;;;;;;;46.35;26.45;;;;;;;;;;5017719;28;20030;-79
2022/01/10 08:44:24;;;;;;;44.63;23.73;;;;;;;;;;5008062;28;20038;-79
2022/01/10 08:46:50;;;;;;;38.63;24.30;;;;;;;;;;5008872;28;20052;-78
2022/01/10 08:49:16;;;;;;;42.05;24.90;;;;;;;;;;5004704;28;20057;-77
2022/01/10 08:51:42;;;;;;;42.15;26.75;;;;;;;;;;5012136;28;20129;-79
2022/01/10 08:54:09;;;;;;;52.35;27.92;;;;;;;;;;5015722;28;20049;-76
2022/01/10 08:56:35;;;;;;;43.63;25.95;;;;;;;;;;5012254;28;20039;-78
2022/01/10 08:59:05;;;;;;;41.83;25.23;;;;;;;;;;4997264;28;20041;-78
2022/01/10 09:01:31;;;;;;;50.25;27.13;;;;;;;;;;4977538;28;20038;-78
2022/01/10 09:03:57;;;;;;;45.05;28.75;;;;;;;;;;5009793;28;20053;-77
2022/01/10 09:06:23;;;;;;;37.15;24.55;;;;;;;;;;5008987;28;20029;-78
2022/01/10 09:08:51;;;;;;;37.08;24.70;;;;;;;;;;4985085;28;20034;-77
2022/01/10 09:11:17;;;;;;;37.40;25.13;;;;;;;;;;5002839;28;20037;-78
2022/01/10 09:13:42;;;;;;;45.95;26.38;;;;;;;;;;5024171;28;20037;-80
2022/01/10 09:16:09;;;;;;;43.80;26.85;;;;;;;;;;5013781;28;20096;-78
2022/01/10 09:18:35;;;;;;;40.20;25.52;;;;;;;;;;5014314;28;20037;-79
2022/01/10 09:21:01;;;;;;;40.58;26.13;;;;;;;;;;4992639;28;20054;-80
2022/01/10 09:23:27;;;;;;;41.75;26.50;;;;;;;;;;5014694;28;20044;-79
2022/01/10 09:25:53;;;;;;;47.90;25.52;;;;;;;;;;5010892;28;20133;-77
2022/01/10 09:28:19;;;;;;;43.38;25.80;;;;;;;;;;4992242;28;20367;-78
2022/01/10 09:30:46;;;;;;;43.80;25.10;;;;;;;;;;5005440;28;20042;-79
2022/01/10 09:33:12;;;;;;;41.38;25.73;;;;;;;;;;5020442;28;20468;-78
2022/01/10 09:35:37;;;;;;;43.33;27.38;;;;;;;;;;5006030;28;20041;-79
2022/01/10 09:38:03;;;;;;;51.00;26.40;;;;;;;;;;4995241;28;20116;-80
2022/01/10 09:40:30;;;;;;;44.22;25.20;;;;;;;;;;5014980;28;20661;-78
2022/01/10 09:42:55;;;;;;;47.78;26.58;;;;;;;;;;4987982;28;20036;-78
2022/01/10 09:45:21;;;;;;;42.10;28.08;;;;;;;;;;5014508;28;20045;-78
2022/01/10 09:47:47;;;;;;;40.75;28.27;;;;;;;;;;5010248;28;20042;-79
2022/01/10 09:50:16;;;;;;;39.20;26.45;;;;;;;;;;4997538;28;20541;-77
2022/01/10 09:52:44;;;;;;;46.20;26.00;;;;;;;;;;5020871;28;20473;-78
2022/01/10 09:55:10;;;;;;;47.83;27.05;;;;;;;;;;5013762;28;20521;-77
2022/01/10 09:57:36;;;;;;;42.33;27.50;;;;;;;;;;4994964;28;20091;-79
2022/01/10 10:00:04;;;;;;;40.47;23.00;;;;;;;;;;5017626;28;20409;-78
2022/01/10 10:02:38;;;;;;;34.00;22.83;;;;;;;;;;5013043;28;20030;-77
2022/01/10 10:05:05;;;;;;;33.33;21.75;;;;;;;;;;5006817;28;20048;-80
2022/01/10 10:07:31;;;;;;;36.65;22.77;;;;;;;;;;5010393;28;20045;-79
2022/01/10 10:10:03;;;;;;;30.85;22.05;;;;;;;;;;5008349;28;20033;-79
2022/01/10 10:12:29;;;;;;;31.27;22.48;;;;;;;;;;5014911;28;20132;-80
2022/01/10 10:14:55;;;;;;;36.58;21.73;;;;;;;;;;5014443;28;20048;-80
2022/01/10 10:17:22;;;;;;;28.50;20.50;;;;;;;;;;5004227;28;20038;-80
2022/01/10 10:19:49;;;;;;;30.55;21.42;;;;;;;;;;5010186;28;20048;-78
2022/01/10 10:22:15;;;;;;;33.75;21.30;;;;;;;;;;5010302;28;20044;-78
2022/01/10 10:24:41;;;;;;;32.63;19.45;;;;;;;;;;5002769;28;20124;-79
2022/01/10 10:27:08;;;;;;;31.63;21.70;;;;;;;;;;5012699;28;20045;-79
2022/01/10 10:29:37;;;;;;;28.98;20.98;;;;;;;;;;5018098;28;20037;-80
2022/01/10 10:32:04;;;;;;;36.85;21.63;;;;;;;;;;4992944;28;20371;-79
2022/01/10 10:34:32;;;;;;;33.97;20.98;;;;;;;;;;5002104;28;20068;-79
2022/01/10 10:37:18;;;;;;;23.00;18.67;;;;;;;;;;5006817;28;20084;-79
2022/01/10 10:39:44;;;;;;;29.33;19.33;;;;;;;;;;5014184;28;20053;-79
2022/01/10 10:42:12;;;;;;;27.20;19.80;;;;;;;;;;5010322;28;20107;-79
2022/01/10 10:44:39;;;;;;;32.20;22.27;;;;;;;;;;5006638;28;20510;-79
2022/01/10 10:47:05;;;;;;;30.20;21.08;;;;;;;;;;5008776;28;20084;-79
2022/01/10 10:49:39;;;;;;;28.98;20.35;;;;;;;;;;5010859;28;20097;-80
2022/01/10 10:52:08;;;;;;;30.48;21.10;;;;;;;;;;5004876;28;20027;-77
2022/01/10 10:54:35;;;;;;;34.28;22.30;;;;;;;;;;5002872;28;20038;-78
2022/01/10 10:57:03;;;;;;;27.77;21.05;;;;;;;;;;5010303;28;20049;-79
2022/01/10 10:59:30;;;;;;;26.60;18.42;;;;;;;;;;5003709;28;20037;-79
2022/01/10 11:01:58;;;;;;;21.88;17.08;;;;;;;;;;5007533;28;20049;-79
2022/01/10 11:04:24;;;;;;;18.65;16.58;;;;;;;;;;5008031;28;20531;-78
2022/01/10 11:06:50;;;;;;;23.67;17.10;;;;;;;;;;5000980;28;20129;-78
2022/01/10 11:09:16;;;;;;;23.50;17.27;;;;;;;;;;5001600;28;20100;-79
2022/01/10 11:11:42;;;;;;;21.00;17.83;;;;;;;;;;4992682;28;20042;-77
2022/01/10 11:14:10;;;;;;;27.85;21.25;;;;;;;;;;4990288;28;20061;-76
2022/01/10 11:16:42;;;;;;;24.77;17.83;;;;;;;;;;5004996;28;20030;-77
2022/01/10 11:19:16;;;;;;;23.42;17.10;;;;;;;;;;5018882;28;20405;-77
2022/01/10 11:21:46;;;;;;;20.50;16.50;;;;;;;;;;5009010;28;20040;-78
2022/01/10 11:24:50;;;;;;;18.45;16.38;;;;;;;;;;5014614;28;20065;-78
2022/01/10 11:27:42;;;;;;;20.52;15.95;;;;;;;;;;4995652;28;20096;-78
2022/01/10 11:30:28;;;;;;;19.10;16.25;;;;;;;;;;5009184;28;20037;-76
2022/01/10 11:33:07;;;;;;;20.95;16.67;;;;;;;;;;5011877;28;20030;-79
2022/01/10 11:35:40;;;;;;;18.95;15.05;;;;;;;;;;5012806;28;20151;-77
2022/01/10 11:38:37;;;;;;;25.90;16.33;;;;;;;;;;5019209;28;20417;-80
2022/01/10 11:41:20;;;;;;;20.23;15.75;;;;;;;;;;4992608;28;20100;-80
2022/01/10 11:44:03;;;;;;;22.02;17.23;;;;;;;;;;5013682;28;20049;-78
2022/01/10 11:46:43;;;;;;;24.98;16.45;;;;;;;;;;5016297;28;20041;-78
2022/01/10 11:49:08;;;;;;;21.50;17.30;;;;;;;;;;5017990;28;20030;-81
2022/01/10 11:51:38;;;;;;;20.35;16.88;;;;;;;;;;5022855;28;20055;-78
2022/01/10 11:54:14;;;;;;;22.77;18.38;;;;;;;;;;4996805;28;20101;-78
2022/01/10 11:56:42;;;;;;;20.38;16.48;;;;;;;;;;5017905;28;20068;-80
2022/01/10 11:59:23;;;;;;;25.13;16.30;;;;;;;;;;5009300;28;20044;-80
2022/01/10 12:02:11;;;;;;;21.38;16.58;;;;;;;;;;5009315;28;20362;-80
2022/01/10 12:04:49;;;;;;;19.88;15.63;;;;;;;;;;5018902;28;20099;-77
2022/01/10 12:07:19;;;;;;;17.38;15.57;;;;;;;;;;4988302;28;20030;-77
2022/01/10 12:09:48;;;;;;;21.50;15.93;;;;;;;;;;5012547;28;20388;-78
2022/01/10 12:12:17;;;;;;;;;;;;;;;;;;5018590;28;20029;-78
2022/01/10 12:14:43;;;;;;;20.92;16.13;;;;;;;;;;5008393;28;19913;-79
2022/01/10 12:17:10;;;;;;;18.95;15.32;;;;;;;;;;5012276;28;20108;-78
2022/01/10 12:19:37;;;;;;;21.98;16.20;;;;;;;;;;4997284;28;20045;-81
2022/01/10 12:22:06;;;;;;;20.05;16.80;;;;;;;;;;5016691;28;20030;-82
2022/01/10 12:24:35;;;;;;;22.95;18.25;;;;;;;;;;5013664;28;20068;-78
2022/01/10 12:27:03;;;;;;;26.02;17.27;;;;;;;;;;5009640;28;20045;-80
2022/01/10 12:29:30;;;;;;;19.92;17.15;;;;;;;;;;4996156;28;20033;-81
2022/01/10 12:31:57;;;;;;;21.40;17.42;;;;;;;;;;5013778;28;20034;-78
2022/01/10 12:34:25;;;;;;;22.98;19.70;;;;;;;;;;5021462;28;20464;-78
2022/01/10 12:36:50;;;;;;;23.02;18.20;;;;;;;;;;5019124;28;20041;-79
2022/01/10 12:39:24;;;;;;;22.88;18.13;;;;;;;;;;4995947;28;20037;-77
2022/01/10 12:41:51;;;;;;;20.60;17.15;;;;;;;;;;4991270;28;20084;-78
2022/01/10 12:44:17;;;;;;;17.90;16.15;;;;;;;;;;4998307;28;20049;-78
2022/01/10 12:46:43;;;;;;;21.30;17.83;;;;;;;;;;5014185;28;20113;-79
2022/01/10 12:49:11;;;;;;;27.55;17.92;;;;;;;;;;5013592;28;20076;-78
2022/01/10 12:51:43;;;;;;;25.77;17.45;;;;;;;;;;4997899;28;20046;-78
2022/01/10 12:54:15;;;;;;;20.63;17.75;;;;;;;;;;5018959;28;20393;-80
2022/01/10 12:56:41;;;;;;;21.73;18.70;;;;;;;;;;4975958;28;20077;-78
2022/01/10 12:59:07;;;;;;;24.63;18.05;;;;;;;;;;4999892;28;20042;-78
2022/01/10 13:01:33;;;;;;;20.05;17.58;;;;;;;;;;5008125;28;20038;-79
2022/01/10 13:04:01;;;;;;;22.38;19.60;;;;;;;;;;5012071;28;20048;-79
2022/01/10 13:06:30;;;;;;;24.48;20.42;;;;;;;;;;5009754;28;20038;-78
2022/01/10 13:08:57;;;;;;;25.48;19.00;;;;;;;;;;5010777;28;20045;-82
2022/01/10 13:11:30;;;;;;;25.48;19.70;;;;;;;;;;5012018;28;20038;-81
2022/01/10 13:14:07;;;;;;;20.80;17.02;;;;;;;;;;4997093;28;20034;-79
2022/01/10 13:16:33;;;;;;;20.58;17.10;;;;;;;;;;5017300;28;20038;-81
2022/01/10 13:19:13;;;;;;;20.42;18.17;;;;;;;;;;5007315;28;20068;-80
2022/01/10 13:21:46;;;;;;;19.77;17.40;;;;;;;;;;5013387;28;20026;-79
2022/01/10 13:24:19;;;;;;;26.02;18.50;;;;;;;;;;5002985;28;20045;-77
2022/01/10 13:27:18;;;;;;;25.17;17.45;;;;;;;;;;5008411;28;20423;-77
2022/01/10 13:29:48;;;;;;;25.70;18.20;;;;;;;;;;5005998;28;20060;-77
2022/01/10 13:32:34;;;;;;;26.38;17.13;;;;;;;;;;5003106;28;20072;-76
2022/01/10 13:34:59;;;;;;;21.13;16.73;;;;;;;;;;5005955;28;20060;-77
2022/01/10 13:37:34;;;;;;;21.80;17.80;;;;;;;;;;4988772;28;20038;-77
2022/01/10 13:40:06;;;;;;;20.48;18.40;;;;;;;;;;5004526;28;20030;-77
2022/01/10 13:42:46;;;;;;;21.75;16.63;;;;;;;;;;5006171;28;20030;-77
2022/01/10 13:45:13;;;;;;;21.75;16.95;;;;;;;;;;4989423;28;20229;-77
2022/01/10 13:48:09;;;;;;;22.85;17.77;;;;;;;;;;5003960;28;20068;-77
2022/01/10 13:50:35;;;;;;;19.42;17.38;;;;;;;;;;4987677;28;20046;-76
2022/01/10 13:53:27;;;;;;;24.90;17.05;;;;;;;;;;5010119;28;20796;-76
2022/01/10 13:56:12;;;;;;;17.73;15.93;;;;;;;;;;5003246;28;20045;-76
2022/01/10 13:58:41;;;;;;;26.98;17.08;;;;;;;;;;5010137;28;20038;-76
2022/01/10 14:01:11;;;;;;;19.40;17.30;;;;;;;;;;5005926;28;20057;-76
2022/01/10 14:03:36;;;;;;;20.08;17.42;;;;;;;;;;5001206;28;20409;-77
2022/01/10 14:06:25;;;;;;;22.48;16.35;;;;;;;;;;5007336;28;20044;-76
2022/01/10 14:08:52;;;;;;;20.90;16.58;;;;;;;;;;5008824;28;20037;-76
2022/01/10 14:11:21;;;;;;;26.75;17.50;;;;;;;;;;5003699;28;20509;-76
2022/01/10 14:13:49;;;;;;;22.95;16.70;;;;;;;;;;5004043;28;20433;-76
2022/01/10 14:16:21;;;;;;;29.27;17.98;;;;;;;;;;5004677;28;20044;-76
2022/01/10 14:18:48;;;;;;;22.88;18.70;;;;;;;;;;4979176;28;20123;-77
2022/01/10 14:21:18;;;;;;;21.25;18.42;;;;;;;;;;5005577;28;20034;-76
2022/01/10 14:23:45;;;;;;;20.70;16.33;;;;;;;;;;4991290;28;20046;-76
2022/01/10 14:26:12;;;;;;;22.67;17.17;;;;;;;;;;4987402;28;20394;-76
2022/01/10 14:28:40;;;;;;;23.85;17.88;;;;;;;;;;5007166;28;20037;-76
2022/01/10 14:31:07;;;;;;;24.33;17.88;;;;;;;;;;5003850;28;20121;-76